sensor_id;sensor_type;location;lat;lon;timestamp;pressure;altitude;pressure_sealevel;temperature
64458;BMP280;58438;51.200;7.252;2024-01-10T00:00:08;98895.13;;;-6.18
64458;BMP280;58438;51.200;7.252;2024-01-10T00:02:56;98883.97;;;-6.11
64458;BMP280;58438;51.200;7.252;2024-01-10T00:05:45;98889.22;;;-6.23
64458;BMP280;58438;51.200;7.252;2024-01-10T00:08:32;98885.72;;;-6.15
64458;BMP280;58438;51.200;7.252;2024-01-10T00:11:19;98890.28;;;-6.16
64458;BMP280;58438;51.200;7.252;2024-01-10T00:14:06;98884.66;;;-6.14
64458;BMP280;58438;51.200;7.252;2024-01-10T00:16:53;98882.44;;;-6.12
64458;BMP280;58438;51.200;7.252;2024-01-10T00:19:40;98884.75;;;-6.11
64458;BMP280;58438;51.200;7.252;2024-01-10T00:22:28;98878.63;;;-6.03
64458;BMP280;58438;51.200;7.252;2024-01-10T00:25:15;98868.88;;;-6.11
64458;BMP280;58438;51.200;7.252;2024-01-10T00:28:03;98870.41;;;-6.10
64458;BMP280;58438;51.200;7.252;2024-01-10T00:30:50;98866.97;;;-6.10
64458;BMP280;58438;51.200;7.252;2024-01-10T00:33:38;98872.38;;;-6.19
64458;BMP280;58438;51.200;7.252;2024-01-10T00:36:25;98863.41;;;-6.26
64458;BMP280;58438;51.200;7.252;2024-01-10T00:39:14;98859.91;;;-6.18
64458;BMP280;58438;51.200;7.252;2024-01-10T00:42:01;98862.19;;;-6.29
64458;BMP280;58438;51.200;7.252;2024-01-10T00:44:49;98860.81;;;-6.47
64458;BMP280;58438;51.200;7.252;2024-01-10T00:47:36;98848.44;;;-6.43
64458;BMP280;58438;51.200;7.252;2024-01-10T00:50:23;98848.84;;;-6.53
64458;BMP280;58438;51.200;7.252;2024-01-10T00:53:10;98846.19;;;-6.53
64458;BMP280;58438;51.200;7.252;2024-01-10T00:55:58;98851.28;;;-6.48
64458;BMP280;58438;51.200;7.252;2024-01-10T00:58:45;98851.75;;;-6.46
64458;BMP280;58438;51.200;7.252;2024-01-10T01:01:32;98849.44;;;-6.47
64458;BMP280;58438;51.200;7.252;2024-01-10T01:04:20;98849.63;;;-6.52
64458;BMP280;58438;51.200;7.252;2024-01-10T01:07:10;98843.97;;;-6.51
64458;BMP280;58438;51.200;7.252;2024-01-10T01:10:00;98838.91;;;-6.56
64458;BMP280;58438;51.200;7.252;2024-01-10T01:12:51;98841.94;;;-6.45
64458;BMP280;58438;51.200;7.252;2024-01-10T01:15:41;98845.06;;;-6.64
64458;BMP280;58438;51.200;7.252;2024-01-10T01:18:31;98843.31;;;-6.60
64458;BMP280;58438;51.200;7.252;2024-01-10T01:21:21;98830.34;;;-6.61
64458;BMP280;58438;51.200;7.252;2024-01-10T01:24:11;98831.03;;;-6.64
64458;BMP280;58438;51.200;7.252;2024-01-10T01:27:02;98829.03;;;-6.67
64458;BMP280;58438;51.200;7.252;2024-01-10T01:29:53;98825.63;;;-6.68
64458;BMP280;58438;51.200;7.252;2024-01-10T01:32:43;98816.31;;;-6.74
64458;BMP280;58438;51.200;7.252;2024-01-10T01:35:33;98817.41;;;-6.75
64458;BMP280;58438;51.200;7.252;2024-01-10T01:38:22;98815.75;;;-6.79
64458;BMP280;58438;51.200;7.252;2024-01-10T01:41:12;98820.72;;;-6.78
64458;BMP280;58438;51.200;7.252;2024-01-10T01:44:02;98819.22;;;-6.67
64458;BMP280;58438;51.200;7.252;2024-01-10T01:46:54;98821.59;;;-6.74
64458;BMP280;58438;51.200;7.252;2024-01-10T01:49:44;98823.63;;;-6.71
64458;BMP280;58438;51.200;7.252;2024-01-10T01:52:33;98815.69;;;-6.71
64458;BMP280;58438;51.200;7.252;2024-01-10T01:55:23;98814.06;;;-6.84
64458;BMP280;58438;51.200;7.252;2024-01-10T01:58:13;98815.63;;;-6.83
64458;BMP280;58438;51.200;7.252;2024-01-10T02:01:03;98807.25;;;-6.85
64458;BMP280;58438;51.200;7.252;2024-01-10T02:03:55;98806.13;;;-6.84
64458;BMP280;58438;51.200;7.252;2024-01-10T02:06:44;98791.50;;;-7.02
64458;BMP280;58438;51.200;7.252;2024-01-10T02:09:37;98787.53;;;-6.96
64458;BMP280;58438;51.200;7.252;2024-01-10T02:12:26;98789.59;;;-7.01
64458;BMP280;58438;51.200;7.252;2024-01-10T02:15:16;98782.06;;;-6.91
64458;BMP280;58438;51.200;7.252;2024-01-10T02:18:06;98784.38;;;-6.89
64458;BMP280;58438;51.200;7.252;2024-01-10T02:21:00;98780.72;;;-6.97
64458;BMP280;58438;51.200;7.252;2024-01-10T02:23:49;98782.44;;;-7.01
64458;BMP280;58438;51.200;7.252;2024-01-10T02:26:41;98771.41;;;-7.03
64458;BMP280;58438;51.200;7.252;2024-01-10T02:29:30;98779.81;;;-7.01
64458;BMP280;58438;51.200;7.252;2024-01-10T02:32:21;98767.22;;;-7.04
64458;BMP280;58438;51.200;7.252;2024-01-10T02:35:10;98761.66;;;-7.11
64458;BMP280;58438;51.200;7.252;2024-01-10T02:38:01;98767.44;;;-7.09
64458;BMP280;58438;51.200;7.252;2024-01-10T02:40:51;98774.59;;;-7.09
64458;BMP280;58438;51.200;7.252;2024-01-10T02:43:42;98777.34;;;-7.06
64458;BMP280;58438;51.200;7.252;2024-01-10T02:46:31;98777.03;;;-7.04
64458;BMP280;58438;51.200;7.252;2024-01-10T02:49:18;98780.13;;;-7.02
64458;BMP280;58438;51.200;7.252;2024-01-10T02:52:05;98792.69;;;-6.99
64458;BMP280;58438;51.200;7.252;2024-01-10T02:54:53;98781.38;;;-6.88
64458;BMP280;58438;51.200;7.252;2024-01-10T02:57:40;98792.50;;;-6.94
64458;BMP280;58438;51.200;7.252;2024-01-10T03:00:29;98788.00;;;-6.94
64458;BMP280;58438;51.200;7.252;2024-01-10T03:03:16;98786.69;;;-6.88
64458;BMP280;58438;51.200;7.252;2024-01-10T03:06:04;98783.59;;;-6.90
64458;BMP280;58438;51.200;7.252;2024-01-10T03:08:51;98780.78;;;-6.85
64458;BMP280;58438;51.200;7.252;2024-01-10T03:11:38;98777.84;;;-6.92
64458;BMP280;58438;51.200;7.252;2024-01-10T03:14:25;98774.66;;;-6.97
64458;BMP280;58438;51.200;7.252;2024-01-10T03:17:13;98774.44;;;-6.92
64458;BMP280;58438;51.200;7.252;2024-01-10T03:20:01;98771.47;;;-6.91
64458;BMP280;58438;51.200;7.252;2024-01-10T03:22:48;98769.22;;;-7.01
64458;BMP280;58438;51.200;7.252;2024-01-10T03:25:35;98773.25;;;-6.95
64458;BMP280;58438;51.200;7.252;2024-01-10T03:28:22;98769.47;;;-6.94
64458;BMP280;58438;51.200;7.252;2024-01-10T03:31:10;98770.59;;;-6.95
64458;BMP280;58438;51.200;7.252;2024-01-10T03:33:58;98771.22;;;-6.98
64458;BMP280;58438;51.200;7.252;2024-01-10T03:36:45;98771.97;;;-6.77
64458;BMP280;58438;51.200;7.252;2024-01-10T03:39:32;98780.34;;;-6.75
64458;BMP280;58438;51.200;7.252;2024-01-10T03:42:19;98774.38;;;-6.84
64458;BMP280;58438;51.200;7.252;2024-01-10T03:45:06;98768.16;;;-6.88
64458;BMP280;58438;51.200;7.252;2024-01-10T03:47:53;98774.44;;;-6.92
64458;BMP280;58438;51.200;7.252;2024-01-10T03:50:41;98772.78;;;-6.97
64458;BMP280;58438;51.200;7.252;2024-01-10T03:53:28;98767.56;;;-7.05
64458;BMP280;58438;51.200;7.252;2024-01-10T03:56:16;98774.94;;;-6.99
64458;BMP280;58438;51.200;7.252;2024-01-10T03:59:03;98773.94;;;-7.06
64458;BMP280;58438;51.200;7.252;2024-01-10T04:01:50;98771.88;;;-7.01
64458;BMP280;58438;51.200;7.252;2024-01-10T04:04:37;98772.31;;;-6.99
64458;BMP280;58438;51.200;7.252;2024-01-10T04:07:27;98769.00;;;-6.96
64458;BMP280;58438;51.200;7.252;2024-01-10T04:10:14;98772.13;;;-6.94
64458;BMP280;58438;51.200;7.252;2024-01-10T04:13:01;98758.44;;;-6.96
64458;BMP280;58438;51.200;7.252;2024-01-10T04:15:48;98766.38;;;-6.96
64458;BMP280;58438;51.200;7.252;2024-01-10T04:18:36;98766.28;;;-6.87
64458;BMP280;58438;51.200;7.252;2024-01-10T04:21:23;98766.97;;;-6.90
64458;BMP280;58438;51.200;7.252;2024-01-10T04:24:11;98757.34;;;-6.95
64458;BMP280;58438;51.200;7.252;2024-01-10T04:26:58;98758.66;;;-6.89
64458;BMP280;58438;51.200;7.252;2024-01-10T04:29:46;98753.59;;;-6.94
64458;BMP280;58438;51.200;7.252;2024-01-10T04:32:33;98747.25;;;-7.01
64458;BMP280;58438;51.200;7.252;2024-01-10T04:35:20;98752.81;;;-6.94
64458;BMP280;58438;51.200;7.252;2024-01-10T04:38:08;98750.97;;;-6.94
64458;BMP280;58438;51.200;7.252;2024-01-10T04:40:56;98745.66;;;-6.94
64458;BMP280;58438;51.200;7.252;2024-01-10T04:43:43;98748.75;;;-6.92
64458;BMP280;58438;51.200;7.252;2024-01-10T04:46:30;98749.00;;;-6.85
64458;BMP280;58438;51.200;7.252;2024-01-10T04:49:19;98759.28;;;-6.83
64458;BMP280;58438;51.200;7.252;2024-01-10T04:52:06;98758.56;;;-6.72
64458;BMP280;58438;51.200;7.252;2024-01-10T04:54:53;98768.03;;;-6.71
64458;BMP280;58438;51.200;7.252;2024-01-10T04:57:41;98763.88;;;-6.60
64458;BMP280;58438;51.200;7.252;2024-01-10T05:00:28;98755.03;;;-6.64
64458;BMP280;58438;51.200;7.252;2024-01-10T05:03:16;98759.25;;;-6.51
64458;BMP280;58438;51.200;7.252;2024-01-10T05:06:03;98757.69;;;-6.52
64458;BMP280;58438;51.200;7.252;2024-01-10T05:08:50;98758.06;;;-6.41
64458;BMP280;58438;51.200;7.252;2024-01-10T05:11:37;98763.91;;;-6.36
64458;BMP280;58438;51.200;7.252;2024-01-10T05:14:28;98764.78;;;-6.56
64458;BMP280;58438;51.200;7.252;2024-01-10T05:17:15;98764.69;;;-6.47
64458;BMP280;58438;51.200;7.252;2024-01-10T05:20:03;98763.88;;;-6.60
64458;BMP280;58438;51.200;7.252;2024-01-10T05:22:51;98769.16;;;-6.72
64458;BMP280;58438;51.200;7.252;2024-01-10T05:25:38;98761.31;;;-6.68
64458;BMP280;58438;51.200;7.252;2024-01-10T05:28:26;98760.31;;;-6.64
64458;BMP280;58438;51.200;7.252;2024-01-10T05:31:15;98766.75;;;-6.53
64458;BMP280;58438;51.200;7.252;2024-01-10T05:34:02;98765.69;;;-6.40
64458;BMP280;58438;51.200;7.252;2024-01-10T05:36:50;98767.47;;;-6.32
64458;BMP280;58438;51.200;7.252;2024-01-10T05:39:37;98766.22;;;-6.46
64458;BMP280;58438;51.200;7.252;2024-01-10T05:42:24;98767.19;;;-6.51
64458;BMP280;58438;51.200;7.252;2024-01-10T05:45:12;98769.44;;;-6.41
64458;BMP280;58438;51.200;7.252;2024-01-10T05:48:00;98765.69;;;-6.40
64458;BMP280;58438;51.200;7.252;2024-01-10T05:50:48;98766.47;;;-6.27
64458;BMP280;58438;51.200;7.252;2024-01-10T05:53:36;98760.88;;;-6.26
64458;BMP280;58438;51.200;7.252;2024-01-10T05:56:23;98767.50;;;-6.20
64458;BMP280;58438;51.200;7.252;2024-01-10T05:59:10;98769.47;;;-6.29
64458;BMP280;58438;51.200;7.252;2024-01-10T06:01:58;98766.47;;;-6.27
64458;BMP280;58438;51.200;7.252;2024-01-10T06:04:47;98758.31;;;-6.22
64458;BMP280;58438;51.200;7.252;2024-01-10T06:07:34;98775.28;;;-6.23
64458;BMP280;58438;51.200;7.252;2024-01-10T06:10:21;98765.16;;;-6.21
64458;BMP280;58438;51.200;7.252;2024-01-10T06:13:08;98761.88;;;-6.18
64458;BMP280;58438;51.200;7.252;2024-01-10T06:15:55;98761.19;;;-6.27
64458;BMP280;58438;51.200;7.252;2024-01-10T06:18:42;98767.47;;;-6.32
64458;BMP280;58438;51.200;7.252;2024-01-10T06:21:30;98766.50;;;-6.15
64458;BMP280;58438;51.200;7.252;2024-01-10T06:24:17;98767.38;;;-6.11
64458;BMP280;58438;51.200;7.252;2024-01-10T06:27:05;98760.00;;;-6.06
64458;BMP280;58438;51.200;7.252;2024-01-10T06:29:52;98760.53;;;-6.12
64458;BMP280;58438;51.200;7.252;2024-01-10T06:32:39;98756.09;;;-6.08
64458;BMP280;58438;51.200;7.252;2024-01-10T06:35:27;98764.38;;;-6.22
64458;BMP280;58438;51.200;7.252;2024-01-10T06:38:15;98767.25;;;-6.27
64458;BMP280;58438;51.200;7.252;2024-01-10T06:41:06;98761.63;;;-6.25
64458;BMP280;58438;51.200;7.252;2024-01-10T06:43:54;98755.13;;;-6.16
64458;BMP280;58438;51.200;7.252;2024-01-10T06:46:41;98752.41;;;-6.07
64458;BMP280;58438;51.200;7.252;2024-01-10T06:49:28;98756.47;;;-6.10
64458;BMP280;58438;51.200;7.252;2024-01-10T06:52:15;98757.34;;;-6.18
64458;BMP280;58438;51.200;7.252;2024-01-10T06:55:04;98765.72;;;-6.16
64458;BMP280;58438;51.200;7.252;2024-01-10T06:57:51;98761.53;;;-6.17
64458;BMP280;58438;51.200;7.252;2024-01-10T07:00:40;98767.34;;;-6.23
64458;BMP280;58438;51.200;7.252;2024-01-10T07:03:27;98763.31;;;-6.21
64458;BMP280;58438;51.200;7.252;2024-01-10T07:06:14;98753.94;;;-6.06
64458;BMP280;58438;51.200;7.252;2024-01-10T07:09:02;98761.88;;;-6.18
64458;BMP280;58438;51.200;7.252;2024-01-10T07:11:52;98757.22;;;-6.21
64458;BMP280;58438;51.200;7.252;2024-01-10T07:14:39;98759.97;;;-6.30
64458;BMP280;58438;51.200;7.252;2024-01-10T07:17:26;98757.69;;;-6.52
64458;BMP280;58438;51.200;7.252;2024-01-10T07:20:13;98748.09;;;-6.56
64458;BMP280;58438;51.200;7.252;2024-01-10T07:23:01;98747.78;;;-6.55
64458;BMP280;58438;51.200;7.252;2024-01-10T07:25:48;98755.78;;;-6.63
64458;BMP280;58438;51.200;7.252;2024-01-10T07:28:37;98762.56;;;-6.54
64458;BMP280;58438;51.200;7.252;2024-01-10T07:31:25;98762.97;;;-6.64
64458;BMP280;58438;51.200;7.252;2024-01-10T07:34:14;98748.16;;;-6.65
64458;BMP280;58438;51.200;7.252;2024-01-10T07:37:02;98753.47;;;-6.65
64458;BMP280;58438;51.200;7.252;2024-01-10T07:39:50;98763.06;;;-6.72
64458;BMP280;58438;51.200;7.252;2024-01-10T07:42:37;98762.78;;;-6.59
64458;BMP280;58438;51.200;7.252;2024-01-10T07:48:49;98766.19;;;-6.58
64458;BMP280;58438;51.200;7.252;2024-01-10T07:52:18;98769.97;;;-6.59
64458;BMP280;58438;51.200;7.252;2024-01-10T07:55:30;98763.88;;;-6.48
64458;BMP280;58438;51.200;7.252;2024-01-10T07:58:55;98772.84;;;-6.40
64458;BMP280;58438;51.200;7.252;2024-01-10T08:02:45;98770.78;;;-6.35
64458;BMP280;58438;51.200;7.252;2024-01-10T08:16:55;98781.19;;;-6.18
64458;BMP280;58438;51.200;7.252;2024-01-10T08:21:50;98792.16;;;-6.07
64458;BMP280;58438;51.200;7.252;2024-01-10T08:25:16;98799.84;;;-6.02
64458;BMP280;58438;51.200;7.252;2024-01-10T08:28:08;98785.41;;;-5.93
64458;BMP280;58438;51.200;7.252;2024-01-10T08:39:54;98795.03;;;-5.76
64458;BMP280;58438;51.200;7.252;2024-01-10T08:42:41;98796.00;;;-5.69
64458;BMP280;58438;51.200;7.252;2024-01-10T08:45:29;98795.66;;;-5.55
64458;BMP280;58438;51.200;7.252;2024-01-10T08:48:16;98789.72;;;-5.52
64458;BMP280;58438;51.200;7.252;2024-01-10T08:51:04;98796.69;;;-5.48
64458;BMP280;58438;51.200;7.252;2024-01-10T08:53:51;98791.31;;;-5.36
64458;BMP280;58438;51.200;7.252;2024-01-10T08:56:40;98796.19;;;-5.26
64458;BMP280;58438;51.200;7.252;2024-01-10T08:59:27;98798.06;;;-5.14
64458;BMP280;58438;51.200;7.252;2024-01-10T09:02:14;98790.72;;;-5.05
64458;BMP280;58438;51.200;7.252;2024-01-10T09:05:01;98793.47;;;-5.02
64458;BMP280;58438;51.200;7.252;2024-01-10T09:07:49;98798.28;;;-4.92
64458;BMP280;58438;51.200;7.252;2024-01-10T09:10:36;98796.94;;;-4.86
64458;BMP280;58438;51.200;7.252;2024-01-10T09:13:25;98791.94;;;-4.75
64458;BMP280;58438;51.200;7.252;2024-01-10T09:16:13;98793.78;;;-4.64
64458;BMP280;58438;51.200;7.252;2024-01-10T09:19:01;98795.25;;;-4.35
64458;BMP280;58438;51.200;7.252;2024-01-10T09:21:48;98802.44;;;-4.36
64458;BMP280;58438;51.200;7.252;2024-01-10T09:24:36;98811.06;;;-4.27
64458;BMP280;58438;51.200;7.252;2024-01-10T09:27:26;98808.50;;;-4.23
64458;BMP280;58438;51.200;7.252;2024-01-10T09:30:14;98810.50;;;-4.05
64458;BMP280;58438;51.200;7.252;2024-01-10T09:33:04;98810.47;;;-3.74
64458;BMP280;58438;51.200;7.252;2024-01-10T09:35:51;98808.72;;;-3.51
64458;BMP280;58438;51.200;7.252;2024-01-10T09:38:38;98811.63;;;-3.21
64458;BMP280;58438;51.200;7.252;2024-01-10T09:41:25;98810.38;;;-3.08
64458;BMP280;58438;51.200;7.252;2024-01-10T09:44:16;98819.31;;;-2.82
64458;BMP280;58438;51.200;7.252;2024-01-10T09:47:05;98821.91;;;-2.63
64458;BMP280;58438;51.200;7.252;2024-01-10T09:49:53;98819.66;;;-2.42
64458;BMP280;58438;51.200;7.252;2024-01-10T09:52:41;98818.91;;;-2.20
64458;BMP280;58438;51.200;7.252;2024-01-10T09:55:29;98826.13;;;-2.20
64458;BMP280;58438;51.200;7.252;2024-01-10T09:58:17;98818.56;;;-1.92
64458;BMP280;58438;51.200;7.252;2024-01-10T10:01:05;98820.13;;;-1.91
64458;BMP280;58438;51.200;7.252;2024-01-10T10:03:54;98816.97;;;-1.74
64458;BMP280;58438;51.200;7.252;2024-01-10T10:06:42;98820.50;;;-1.67
64458;BMP280;58438;51.200;7.252;2024-01-10T10:09:30;98817.59;;;-1.55
64458;BMP280;58438;51.200;7.252;2024-01-10T10:12:17;98821.13;;;-1.51
64458;BMP280;58438;51.200;7.252;2024-01-10T10:15:06;98821.47;;;-1.52
64458;BMP280;58438;51.200;7.252;2024-01-10T10:17:57;98823.94;;;-1.40
64458;BMP280;58438;51.200;7.252;2024-01-10T10:20:45;98825.63;;;-1.29
64458;BMP280;58438;51.200;7.252;2024-01-10T10:23:32;98827.31;;;-1.17
64458;BMP280;58438;51.200;7.252;2024-01-10T10:26:20;98823.84;;;-1.18
64458;BMP280;58438;51.200;7.252;2024-01-10T10:29:08;98819.91;;;-0.98
64458;BMP280;58438;51.200;7.252;2024-01-10T10:31:55;98815.31;;;-0.97
64458;BMP280;58438;51.200;7.252;2024-01-10T10:34:42;98811.56;;;-0.89
64458;BMP280;58438;51.200;7.252;2024-01-10T10:37:31;98805.19;;;-0.81
64458;BMP280;58438;51.200;7.252;2024-01-10T10:40:19;98810.56;;;-0.78
64458;BMP280;58438;51.200;7.252;2024-01-10T10:43:06;98806.38;;;-0.75
64458;BMP280;58438;51.200;7.252;2024-01-10T10:45:57;98810.28;;;-0.69
64458;BMP280;58438;51.200;7.252;2024-01-10T10:48:44;98811.16;;;-0.55
64458;BMP280;58438;51.200;7.252;2024-01-10T10:51:34;98813.13;;;-0.52
64458;BMP280;58438;51.200;7.252;2024-01-10T10:54:24;98815.16;;;-0.38
64458;BMP280;58438;51.200;7.252;2024-01-10T10:57:12;98816.34;;;-0.36
64458;BMP280;58438;51.200;7.252;2024-01-10T11:00:00;98808.44;;;-0.25
64458;BMP280;58438;51.200;7.252;2024-01-10T11:02:48;98807.66;;;-0.26
64458;BMP280;58438;51.200;7.252;2024-01-10T11:05:35;98800.13;;;-0.10
64458;BMP280;58438;51.200;7.252;2024-01-10T11:08:27;98813.25;;;0.02
64458;BMP280;58438;51.200;7.252;2024-01-10T11:11:17;98814.06;;;0.13
64458;BMP280;58438;51.200;7.252;2024-01-10T11:14:14;98778.09;;;0.10
64458;BMP280;58438;51.200;7.252;2024-01-10T11:17:13;98817.13;;;0.08
64458;BMP280;58438;51.200;7.252;2024-01-10T11:20:09;98810.25;;;0.14
64458;BMP280;58438;51.200;7.252;2024-01-10T11:23:10;98816.84;;;0.27
64458;BMP280;58438;51.200;7.252;2024-01-10T11:25:58;98808.06;;;0.33
64458;BMP280;58438;51.200;7.252;2024-01-10T11:28:47;98805.81;;;0.39
64458;BMP280;58438;51.200;7.252;2024-01-10T11:31:34;98810.41;;;0.42
64458;BMP280;58438;51.200;7.252;2024-01-10T11:34:22;98810.47;;;0.52
64458;BMP280;58438;51.200;7.252;2024-01-10T11:37:11;98806.66;;;0.53
64458;BMP280;58438;51.200;7.252;2024-01-10T11:39:59;98809.81;;;0.73
64458;BMP280;58438;51.200;7.252;2024-01-10T11:42:47;98793.34;;;0.74
64458;BMP280;58438;51.200;7.252;2024-01-10T11:45:37;98796.78;;;0.75
64458;BMP280;58438;51.200;7.252;2024-01-10T11:48:27;98796.03;;;0.74
64458;BMP280;58438;51.200;7.252;2024-01-10T11:51:15;98795.63;;;0.72
64458;BMP280;58438;51.200;7.252;2024-01-10T11:54:02;98793.69;;;0.66
64458;BMP280;58438;51.200;7.252;2024-01-10T11:56:49;98791.81;;;0.70
64458;BMP280;58438;51.200;7.252;2024-01-10T11:59:37;98787.19;;;0.67
64458;BMP280;58438;51.200;7.252;2024-01-10T12:02:26;98788.34;;;0.66
64458;BMP280;58438;51.200;7.252;2024-01-10T12:05:14;98785.63;;;0.62
64458;BMP280;58438;51.200;7.252;2024-01-10T12:08:04;98783.72;;;0.59
64458;BMP280;58438;51.200;7.252;2024-01-10T12:10:52;98780.97;;;0.45
64458;BMP280;58438;51.200;7.252;2024-01-10T12:13:39;98779.84;;;0.50
64458;BMP280;58438;51.200;7.252;2024-01-10T12:16:26;98777.13;;;0.43
64458;BMP280;58438;51.200;7.252;2024-01-10T12:19:16;98770.22;;;0.42
64458;BMP280;58438;51.200;7.252;2024-01-10T12:22:04;98774.38;;;0.32
64458;BMP280;58438;51.200;7.252;2024-01-10T12:24:53;98769.44;;;0.34
64458;BMP280;58438;51.200;7.252;2024-01-10T12:27:40;98771.28;;;0.20
64458;BMP280;58438;51.200;7.252;2024-01-10T12:30:27;98771.31;;;0.27
64458;BMP280;58438;51.200;7.252;2024-01-10T12:33:14;98760.97;;;0.25
64458;BMP280;58438;51.200;7.252;2024-01-10T12:36:03;98765.19;;;0.26
64458;BMP280;58438;51.200;7.252;2024-01-10T12:38:51;98771.69;;;0.25
64458;BMP280;58438;51.200;7.252;2024-01-10T12:41:39;98770.53;;;0.26
64458;BMP280;58438;51.200;7.252;2024-01-10T12:44:27;98777.81;;;0.22
64458;BMP280;58438;51.200;7.252;2024-01-10T12:47:18;98778.16;;;0.21
64458;BMP280;58438;51.200;7.252;2024-01-10T12:50:06;98782.78;;;0.24
64458;BMP280;58438;51.200;7.252;2024-01-10T12:52:57;98778.19;;;0.24
64458;BMP280;58438;51.200;7.252;2024-01-10T12:55:45;98770.53;;;0.26
64458;BMP280;58438;51.200;7.252;2024-01-10T12:58:32;98787.38;;;0.27
64458;BMP280;58438;51.200;7.252;2024-01-10T13:01:21;98770.56;;;0.23
64458;BMP280;58438;51.200;7.252;2024-01-10T13:04:08;98772.03;;;0.17
64458;BMP280;58438;51.200;7.252;2024-01-10T13:06:58;98768.94;;;0.11
64458;BMP280;58438;51.200;7.252;2024-01-10T13:09:47;98775.47;;;0.17
64458;BMP280;58438;51.200;7.252;2024-01-10T13:12:35;98774.28;;;0.15
64458;BMP280;58438;51.200;7.252;2024-01-10T13:15:22;98767.78;;;0.09
64458;BMP280;58438;51.200;7.252;2024-01-10T13:18:09;98773.47;;;0.04
64458;BMP280;58438;51.200;7.252;2024-01-10T13:20:57;98774.22;;;0.01
64458;BMP280;58438;51.200;7.252;2024-01-10T13:23:44;98777.66;;;0.01
64458;BMP280;58438;51.200;7.252;2024-01-10T13:26:33;98783.47;;;0.14
64458;BMP280;58438;51.200;7.252;2024-01-10T13:29:21;98781.91;;;0.06
64458;BMP280;58438;51.200;7.252;2024-01-10T13:32:08;98777.25;;;-0.04
64458;BMP280;58438;51.200;7.252;2024-01-10T13:34:57;98784.94;;;0.01
64458;BMP280;58438;51.200;7.252;2024-01-10T13:37:44;98784.53;;;-0.01
64458;BMP280;58438;51.200;7.252;2024-01-10T13:40:31;98789.56;;;0.07
64458;BMP280;58438;51.200;7.252;2024-01-10T13:43:21;98795.72;;;0.11
64458;BMP280;58438;51.200;7.252;2024-01-10T13:46:08;98782.25;;;0.01
64458;BMP280;58438;51.200;7.252;2024-01-10T13:48:55;98785.75;;;0.12
64458;BMP280;58438;51.200;7.252;2024-01-10T13:51:43;98789.88;;;-0.01
64458;BMP280;58438;51.200;7.252;2024-01-10T13:54:30;98794.88;;;0.00
64458;BMP280;58438;51.200;7.252;2024-01-10T13:57:17;98794.53;;;0.05
64458;BMP280;58438;51.200;7.252;2024-01-10T14:00:06;98796.41;;;0.05
64458;BMP280;58438;51.200;7.252;2024-01-10T14:02:54;98798.41;;;0.15
64458;BMP280;58438;51.200;7.252;2024-01-10T14:05:45;98799.97;;;0.19
64458;BMP280;58438;51.200;7.252;2024-01-10T14:08:33;98792.59;;;0.06
64458;BMP280;58438;51.200;7.252;2024-01-10T14:11:23;98800.66;;;0.09
64458;BMP280;58438;51.200;7.252;2024-01-10T14:14:10;98800.31;;;0.14
64458;BMP280;58438;51.200;7.252;2024-01-10T14:16:58;98808.25;;;0.00
64458;BMP280;58438;51.200;7.252;2024-01-10T14:19:46;98797.59;;;0.07
64458;BMP280;58438;51.200;7.252;2024-01-10T14:22:33;98809.41;;;0.03
64458;BMP280;58438;51.200;7.252;2024-01-10T14:25:20;98820.13;;;0.03
64458;BMP280;58438;51.200;7.252;2024-01-10T14:28:07;98813.59;;;0.00
64458;BMP280;58438;51.200;7.252;2024-01-10T14:30:55;98811.69;;;0.01
64458;BMP280;58438;51.200;7.252;2024-01-10T14:33:55;98803.94;;;-0.11
64458;BMP280;58438;51.200;7.252;2024-01-10T14:36:43;98803.94;;;-0.11
64458;BMP280;58438;51.200;7.252;2024-01-10T14:39:30;98807.81;;;-0.08
64458;BMP280;58438;51.200;7.252;2024-01-10T14:42:20;98814.28;;;-0.13
64458;BMP280;58438;51.200;7.252;2024-01-10T14:45:07;98809.59;;;-0.19
64458;BMP280;58438;51.200;7.252;2024-01-10T14:47:56;98811.81;;;-0.28
64458;BMP280;58438;51.200;7.252;2024-01-10T14:50:45;98813.81;;;-0.22
64458;BMP280;58438;51.200;7.252;2024-01-10T14:53:34;98814.38;;;-0.39
64458;BMP280;58438;51.200;7.252;2024-01-10T14:56:21;98819.00;;;-0.36
64458;BMP280;58438;51.200;7.252;2024-01-10T14:59:10;98825.78;;;-0.45
64458;BMP280;58438;51.200;7.252;2024-01-10T15:01:57;98816.44;;;-0.62
64458;BMP280;58438;51.200;7.252;2024-01-10T15:04:44;98817.22;;;-0.61
64458;BMP280;58438;51.200;7.252;2024-01-10T15:07:33;98804.59;;;-0.64
64458;BMP280;58438;51.200;7.252;2024-01-10T15:10:20;98813.44;;;-0.57
64458;BMP280;58438;51.200;7.252;2024-01-10T15:13:07;98817.88;;;-0.75
64458;BMP280;58438;51.200;7.252;2024-01-10T15:15:54;98808.78;;;-0.67
64458;BMP280;58438;51.200;7.252;2024-01-10T15:18:41;98806.03;;;-0.74
64458;BMP280;58438;51.200;7.252;2024-01-10T15:21:28;98806.44;;;-0.72
64458;BMP280;58438;51.200;7.252;2024-01-10T15:24:17;98807.50;;;-0.80
64458;BMP280;58438;51.200;7.252;2024-01-10T15:27:06;98812.16;;;-0.70
64458;BMP280;58438;51.200;7.252;2024-01-10T15:29:55;98817.47;;;-0.73
64458;BMP280;58438;51.200;7.252;2024-01-10T15:32:52;98813.38;;;-1.00
64458;BMP280;58438;51.200;7.252;2024-01-10T15:35:39;98807.56;;;-1.09
64458;BMP280;58438;51.200;7.252;2024-01-10T15:38:26;98804.06;;;-1.13
64458;BMP280;58438;51.200;7.252;2024-01-10T15:41:14;98799.41;;;-1.20
64458;BMP280;58438;51.200;7.252;2024-01-10T15:44:04;98811.72;;;-1.38
64458;BMP280;58438;51.200;7.252;2024-01-10T15:46:52;98809.19;;;-1.57
64458;BMP280;58438;51.200;7.252;2024-01-10T15:49:43;98819.25;;;-1.47
64458;BMP280;58438;51.200;7.252;2024-01-10T15:52:32;98821.97;;;-1.43
64458;BMP280;58438;51.200;7.252;2024-01-10T15:55:19;98825.31;;;-1.50
64458;BMP280;58438;51.200;7.252;2024-01-10T15:58:08;98830.97;;;-1.29
64458;BMP280;58438;51.200;7.252;2024-01-10T16:00:55;98832.03;;;-1.33
64458;BMP280;58438;51.200;7.252;2024-01-10T16:03:43;98825.09;;;-1.38
64458;BMP280;58438;51.200;7.252;2024-01-10T16:06:31;98823.06;;;-1.48
64458;BMP280;58438;51.200;7.252;2024-01-10T16:09:19;98827.31;;;-1.43
64458;BMP280;58438;51.200;7.252;2024-01-10T16:12:07;98824.69;;;-1.40
64458;BMP280;58438;51.200;7.252;2024-01-10T16:14:55;98826.59;;;-1.40
64458;BMP280;58438;51.200;7.252;2024-01-10T16:17:43;98832.38;;;-1.35
64458;BMP280;58438;51.200;7.252;2024-01-10T16:20:31;98831.78;;;-1.51
64458;BMP280;58438;51.200;7.252;2024-01-10T16:23:19;98829.13;;;-1.51
64458;BMP280;58438;51.200;7.252;2024-01-10T16:26:06;98826.72;;;-1.59
64458;BMP280;58438;51.200;7.252;2024-01-10T16:28:53;98826.25;;;-1.65
64458;BMP280;58438;51.200;7.252;2024-01-10T16:31:42;98834.88;;;-1.75
64458;BMP280;58438;51.200;7.252;2024-01-10T16:34:29;98831.66;;;-1.84
64458;BMP280;58438;51.200;7.252;2024-01-10T16:37:16;98836.19;;;-1.88
64458;BMP280;58438;51.200;7.252;2024-01-10T16:40:04;98826.31;;;-1.84